createdAt,value
2019-04-10T00:00:37.438Z,48.54
2019-04-10T00:01:44.597Z,48.56
2019-04-10T00:02:50.134Z,48.56
2019-04-10T00:03:55.232Z,48.60
2019-04-10T00:05:01.248Z,48.63
2019-04-10T00:06:06.900Z,48.65
2019-04-10T00:07:16.483Z,48.65
2019-04-10T00:08:19.827Z,48.70
2019-04-10T00:09:25.266Z,48.72
2019-04-10T00:10:30.369Z,48.78
2019-04-10T00:11:36.627Z,48.80
2019-04-10T00:12:42.295Z,48.83
2019-04-10T00:13:47.623Z,48.90
2019-04-10T00:14:52.635Z,48.93
2019-04-10T00:15:59.031Z,48.96
2019-04-10T00:17:04.795Z,49.00
2019-04-10T00:18:12.203Z,48.99
2019-04-10T00:19:18.265Z,49.02
2019-04-10T00:20:24.537Z,49.06
2019-04-10T00:21:29.771Z,49.08
2019-04-10T00:22:34.810Z,49.13
2019-04-10T00:23:40.264Z,49.16
2019-04-10T00:24:46.179Z,49.21
2019-04-10T00:25:51.246Z,49.22
2019-04-10T00:26:56.492Z,49.28
2019-04-10T00:28:01.576Z,49.32
2019-04-10T00:29:07.702Z,49.38
2019-04-10T00:30:13.237Z,49.43
2019-04-10T00:31:18.253Z,49.48
2019-04-10T00:32:23.771Z,49.53
2019-04-10T00:33:29.128Z,49.54
2019-04-10T00:34:34.145Z,49.58
2019-04-10T00:35:39.481Z,49.60
2019-04-10T00:36:45.615Z,49.64
2019-04-10T00:37:51.257Z,49.67
2019-04-10T00:38:56.377Z,49.70
2019-04-10T00:40:03.282Z,49.74
2019-04-10T00:41:10.108Z,49.76
2019-04-10T00:42:15.184Z,49.79
2019-04-10T00:43:20.719Z,49.81
2019-04-10T00:44:25.918Z,49.83
2019-04-10T00:45:30.854Z,49.88
2019-04-10T00:46:36.009Z,49.94
2019-04-10T00:47:41.343Z,49.98
2019-04-10T00:48:46.360Z,50.03
2019-04-10T00:49:51.911Z,50.05
2019-04-10T00:50:57.148Z,50.08
2019-04-10T00:52:02.290Z,50.12
2019-04-10T00:53:08.943Z,50.14
2019-04-10T00:54:16.091Z,50.18
2019-04-10T00:55:21.776Z,50.23
2019-04-10T00:56:28.334Z,50.25
2019-04-10T00:57:33.824Z,50.25
2019-04-10T00:58:39.538Z,50.29
2019-04-10T00:59:45.007Z,50.30
2019-04-10T01:00:50.386Z,50.31
2019-04-10T01:01:56.289Z,50.38
2019-04-10T01:03:01.535Z,50.40
2019-04-10T01:04:07.040Z,50.42
2019-04-10T01:05:13.152Z,50.46
2019-04-10T01:06:18.352Z,50.48
2019-04-10T01:07:34.523Z,50.57
2019-04-10T01:08:30.725Z,50.62
2019-04-10T01:09:35.751Z,50.66
2019-04-10T01:10:42.153Z,50.69
2019-04-10T01:11:47.541Z,50.69
2019-04-10T01:12:52.679Z,50.73
2019-04-10T01:13:59.056Z,50.78
2019-04-10T01:15:04.740Z,50.77
2019-04-10T01:16:09.797Z,50.82
2019-04-10T01:17:15.806Z,50.85
2019-04-10T01:18:21.358Z,50.87
2019-04-10T01:19:27.153Z,50.87
2019-04-10T01:20:33.489Z,50.86
2019-04-10T01:21:38.824Z,50.89
2019-04-10T01:22:44.105Z,50.92
2019-04-10T01:23:49.639Z,50.94
2019-04-10T01:24:55.781Z,50.99
2019-04-10T01:26:01.243Z,51.00
2019-04-10T01:27:07.645Z,51.00
2019-04-10T01:28:12.969Z,51.02
2019-04-10T01:29:18.222Z,51.02
2019-04-10T01:30:24.297Z,51.07
2019-04-10T01:31:29.416Z,51.09
2019-04-10T01:32:34.527Z,51.09
2019-04-10T01:33:39.627Z,51.13
2019-04-10T01:34:45.474Z,51.12
2019-04-10T01:35:50.885Z,51.16
2019-04-10T01:36:56.508Z,51.16
2019-04-10T01:38:04.594Z,51.15
2019-04-10T01:39:10.431Z,51.09
2019-04-10T01:40:15.800Z,51.13
2019-04-10T01:41:20.787Z,51.15
2019-04-10T01:42:25.980Z,51.17
2019-04-10T01:43:31.293Z,51.17
2019-04-10T01:44:36.498Z,51.15
2019-04-10T01:45:43.966Z,51.14
2019-04-10T01:46:49.447Z,51.15
2019-04-10T01:47:55.337Z,51.15
2019-04-10T01:49:00.371Z,51.12
2019-04-10T01:50:06.389Z,51.17
2019-04-10T01:51:11.448Z,51.21
2019-04-10T01:52:17.255Z,51.22
2019-04-10T01:53:23.946Z,51.25
2019-04-10T01:54:29.155Z,51.26
2019-04-10T01:55:35.600Z,51.28
2019-04-10T01:56:41.619Z,51.26
2019-04-10T01:57:48.352Z,51.28
2019-04-10T01:58:53.771Z,51.28
2019-04-10T01:59:58.980Z,51.29
2019-04-10T02:01:10.250Z,51.30
2019-04-10T02:02:32.299Z,51.30
2019-04-10T02:03:38.311Z,51.31
2019-04-10T02:04:43.895Z,51.33
2019-04-10T02:05:49.249Z,51.37
2019-04-10T02:06:54.258Z,51.40
2019-04-10T02:08:07.633Z,51.44
2019-04-10T02:09:09.581Z,51.44
2019-04-10T02:10:16.908Z,51.45
2019-04-10T02:11:22.168Z,51.47
2019-04-10T02:12:28.408Z,51.50
2019-04-10T02:13:33.879Z,51.52
2019-04-10T02:14:39.097Z,51.52
2019-04-10T02:15:44.430Z,51.51
2019-04-10T02:16:50.059Z,51.52
2019-04-10T02:17:55.303Z,51.55
2019-04-10T02:19:01.680Z,51.56
2019-04-10T02:20:07.537Z,51.57
2019-04-10T02:21:13.500Z,51.55
2019-04-10T02:22:18.793Z,51.57
2019-04-10T02:23:23.897Z,51.50
2019-04-10T02:24:29.362Z,51.55
2019-04-10T02:25:34.469Z,51.60
2019-04-10T02:26:39.621Z,51.56
2019-04-10T02:27:44.803Z,51.60
2019-04-10T02:28:49.875Z,51.65
2019-04-10T02:29:55.771Z,51.67
2019-04-10T02:31:02.723Z,51.69
2019-04-10T02:32:10.154Z,51.67
2019-04-10T02:33:15.909Z,51.65
2019-04-10T02:34:21.384Z,51.60
2019-04-10T02:35:27.500Z,51.63
2019-04-10T02:36:34.323Z,51.64
2019-04-10T02:37:41.567Z,51.68
2019-04-10T02:38:59.383Z,51.72
2019-04-10T02:39:57.974Z,51.71
2019-04-10T02:41:01.670Z,51.75
2019-04-10T02:42:08.226Z,51.76
2019-04-10T02:43:14.029Z,51.73
2019-04-10T02:44:20.634Z,51.71
2019-04-10T02:45:26.027Z,51.71
2019-04-10T02:46:31.413Z,51.91
2019-04-10T02:47:37.048Z,51.76
2019-04-10T02:48:43.375Z,51.74
2019-04-10T02:49:49.320Z,51.74
2019-04-10T02:50:55.521Z,51.75
2019-04-10T02:52:00.782Z,51.75
2019-04-10T02:53:07.760Z,51.78
2019-04-10T02:54:14.083Z,51.80
2019-04-10T02:55:20.381Z,51.82
2019-04-10T02:56:25.912Z,51.81
2019-04-10T02:57:31.639Z,51.83
2019-04-10T02:58:38.545Z,51.83
2019-04-10T02:59:45.243Z,51.81
2019-04-10T03:00:52.551Z,51.80
2019-04-10T03:01:58.013Z,51.80
2019-04-10T03:03:05.365Z,51.76
2019-04-10T03:04:11.862Z,51.80
2019-04-10T03:05:18.325Z,51.81
2019-04-10T03:06:24.673Z,51.85
2019-04-10T03:07:31.719Z,51.83
2019-04-10T03:08:51.564Z,51.89
2019-04-10T03:09:56.260Z,51.89
2019-04-10T03:10:56.786Z,51.88
2019-04-10T03:11:57.659Z,51.93
2019-04-10T03:13:02.791Z,51.93
2019-04-10T03:14:08.105Z,51.96
2019-04-10T03:15:15.055Z,52.01
2019-04-10T03:16:21.532Z,52.08
2019-04-10T03:17:28.107Z,52.09
2019-04-10T03:18:33.333Z,52.11
2019-04-10T03:19:38.652Z,52.53
2019-04-10T03:20:44.716Z,52.53
2019-04-10T03:21:49.916Z,52.21
2019-04-10T03:22:55.468Z,52.21
2019-04-10T03:24:00.622Z,52.22
2019-04-10T03:25:06.289Z,52.25
2019-04-10T03:26:11.280Z,52.22
2019-04-10T03:27:16.435Z,52.22
2019-04-10T03:28:21.563Z,52.21
2019-04-10T03:29:27.406Z,52.23
2019-04-10T03:30:34.659Z,52.24
2019-04-10T03:31:41.264Z,52.52
2019-04-10T03:33:21.087Z,52.28
2019-04-10T03:34:26.079Z,52.28
2019-04-10T03:35:34.696Z,52.29
2019-04-10T03:36:40.804Z,51.95
2019-04-10T03:37:46.688Z,51.95
2019-04-10T03:38:58.780Z,52.33
2019-04-10T03:39:59.367Z,52.35
2019-04-10T03:41:04.549Z,52.34
2019-04-10T03:42:10.897Z,52.32
2019-04-10T03:43:17.309Z,52.29
2019-04-10T03:44:22.876Z,52.29
2019-04-10T03:45:28.551Z,52.27
2019-04-10T03:46:33.923Z,52.27
2019-04-10T03:47:39.720Z,52.32
2019-04-10T03:48:45.299Z,52.36
2019-04-10T03:49:50.656Z,52.40
2019-04-10T03:50:56.273Z,52.43
2019-04-10T03:52:03.136Z,52.43
2019-04-10T03:53:08.342Z,52.42
2019-04-10T03:54:13.542Z,52.48
2019-04-10T03:55:18.947Z,52.43
2019-04-10T03:56:25.483Z,52.57
2019-04-10T03:57:30.964Z,52.63
2019-04-10T03:58:37.708Z,52.74
2019-04-10T03:59:43.605Z,52.81
2019-04-10T04:00:50.547Z,52.87
2019-04-10T04:01:55.725Z,52.96
2019-04-10T04:03:00.726Z,53.41
2019-04-10T04:04:06.985Z,53.17
2019-04-10T04:05:12.737Z,53.28
2019-04-10T04:06:17.851Z,53.35
2019-04-10T04:07:24.725Z,53.05
2019-04-10T04:08:31.906Z,53.05
2019-04-10T04:09:37.761Z,53.60
2019-04-10T04:10:42.777Z,53.69
2019-04-10T04:11:48.243Z,53.74
2019-04-10T04:12:53.421Z,53.74
2019-04-10T04:13:59.819Z,53.89
2019-04-10T04:15:05.469Z,53.65
2019-04-10T04:16:10.927Z,54.03
2019-04-10T04:17:16.822Z,54.10
2019-04-10T04:18:22.021Z,54.15
2019-04-10T04:19:28.193Z,54.18
2019-04-10T04:20:33.654Z,54.19
2019-04-10T04:21:39.693Z,54.21
2019-04-10T04:22:45.957Z,54.24
2019-04-10T04:23:51.753Z,54.41
2019-04-10T04:24:58.087Z,54.32
2019-04-10T04:26:03.650Z,54.37
2019-04-10T04:27:09.127Z,54.35
2019-04-10T04:28:14.686Z,54.38
2019-04-10T04:29:20.611Z,54.41
2019-04-10T04:30:28.299Z,54.43
2019-04-10T04:31:33.325Z,54.50
2019-04-10T04:32:39.873Z,54.53
2019-04-10T04:33:45.191Z,54.56
2019-04-10T04:34:50.601Z,54.57
2019-04-10T04:35:56.208Z,54.51
2019-04-10T04:37:02.456Z,54.63
2019-04-10T04:38:07.775Z,54.70
2019-04-10T04:39:21.697Z,54.67
2019-04-10T04:40:20.131Z,54.72
2019-04-10T04:41:25.386Z,54.74
2019-04-10T04:42:30.719Z,54.79
2019-04-10T04:43:36.954Z,54.92
2019-04-10T04:44:43.135Z,54.79
2019-04-10T04:45:49.381Z,55.07
2019-04-10T04:46:54.597Z,55.07
2019-04-10T04:48:01.646Z,54.82
2019-04-10T04:49:06.925Z,54.82
2019-04-10T04:50:12.244Z,54.86
2019-04-10T04:51:17.597Z,54.88
2019-04-10T04:52:23.775Z,54.90
2019-04-10T04:53:29.927Z,54.86
2019-04-10T04:54:35.212Z,54.94
2019-04-10T04:55:40.581Z,54.94
2019-04-10T04:56:46.378Z,54.97
2019-04-10T04:57:51.785Z,55.02
2019-04-10T04:58:56.754Z,55.04
2019-04-10T05:00:01.746Z,55.10
2019-04-10T05:01:07.288Z,55.12
2019-04-10T05:02:12.550Z,55.14
2019-04-10T05:03:18.573Z,55.17
2019-04-10T05:04:24.955Z,55.20
2019-04-10T05:05:30.058Z,55.23
2019-04-10T05:06:35.294Z,55.25
2019-04-10T05:07:41.699Z,55.23
2019-04-10T05:08:46.858Z,55.23
2019-04-10T05:09:52.500Z,55.27
2019-04-10T05:10:57.958Z,55.42
2019-04-10T05:12:03.053Z,55.42
2019-04-10T05:13:08.269Z,55.26
2019-04-10T05:14:13.586Z,55.29
2019-04-10T05:15:18.939Z,55.29
2019-04-10T05:16:24.845Z,55.32
2019-04-10T05:17:30.950Z,55.35
2019-04-10T05:18:37.276Z,55.34
2019-04-10T05:19:42.630Z,55.39
2019-04-10T05:20:50.441Z,55.39
2019-04-10T05:21:55.174Z,55.41
2019-04-10T05:23:00.122Z,55.43
2019-04-10T05:24:05.372Z,55.58
2019-04-10T05:25:11.146Z,55.52
2019-04-10T05:26:16.625Z,55.54
2019-04-10T05:27:22.604Z,55.56
2019-04-10T05:28:28.523Z,55.39
2019-04-10T05:29:34.784Z,55.39
2019-04-10T05:30:41.109Z,55.63
2019-04-10T05:31:46.800Z,55.63
2019-04-10T05:32:52.187Z,55.63
2019-04-10T05:33:57.510Z,55.69
2019-04-10T05:35:06.540Z,55.76
2019-04-10T05:36:10.012Z,55.77
2019-04-10T05:37:15.725Z,55.79
2019-04-10T05:38:20.900Z,55.82
2019-04-10T05:39:26.723Z,55.81
2019-04-10T05:40:33.272Z,55.81
2019-04-10T05:41:39.729Z,55.86
2019-04-10T05:42:45.128Z,55.86
2019-04-10T05:43:50.943Z,55.80
2019-04-10T05:44:56.587Z,55.54
2019-04-10T05:46:01.467Z,55.54
2019-04-10T05:47:07.390Z,55.61
2019-04-10T05:48:12.534Z,55.63
2019-04-10T05:49:17.686Z,55.63
2019-04-10T05:50:23.514Z,55.56
2019-04-10T05:51:28.922Z,55.49
2019-04-10T05:52:33.961Z,55.41
2019-04-10T05:53:39.588Z,55.39
2019-04-10T05:54:44.626Z,55.39
2019-04-10T05:55:49.624Z,55.39
2019-04-10T05:56:54.738Z,55.37
2019-04-10T05:57:59.703Z,55.29
2019-04-10T05:59:05.239Z,55.21
2019-04-10T06:00:12.480Z,55.20
2019-04-10T06:01:29.946Z,55.20
2019-04-10T06:02:25.187Z,55.07
2019-04-10T06:03:30.886Z,54.96
2019-04-10T06:04:36.203Z,54.69
2019-04-10T06:05:42.242Z,54.80
2019-04-10T06:06:48.488Z,54.80
2019-04-10T06:07:53.948Z,54.53
2019-04-10T06:09:00.440Z,54.51
2019-04-10T06:10:09.916Z,54.36
2019-04-10T06:11:13.707Z,54.23
2019-04-10T06:12:20.316Z,54.20
2019-04-10T06:13:25.718Z,53.67
2019-04-10T06:14:30.830Z,53.67
2019-04-10T06:15:37.142Z,53.83
2019-04-10T06:16:42.616Z,53.81
2019-04-10T06:17:49.033Z,53.81
2019-04-10T06:18:54.014Z,53.74
2019-04-10T06:19:59.351Z,53.72
2019-04-10T06:21:05.087Z,53.69
2019-04-10T06:22:11.227Z,53.65
2019-04-10T06:23:17.039Z,53.67
2019-04-10T06:24:22.495Z,53.65
2019-04-10T06:25:28.713Z,53.32
2019-04-10T06:26:35.519Z,53.21
2019-04-10T06:27:40.883Z,53.07
2019-04-10T06:28:46.526Z,52.84
2019-04-10T06:29:51.644Z,52.89
2019-04-10T06:30:56.891Z,52.92
2019-04-10T06:32:03.182Z,52.86
2019-04-10T06:33:09.710Z,52.84
2019-04-10T06:34:17.581Z,52.76
2019-04-10T06:35:22.011Z,52.65
2019-04-10T06:36:27.422Z,52.51
2019-04-10T06:37:32.723Z,52.49
2019-04-10T06:38:37.662Z,52.41
2019-04-10T06:39:44.448Z,52.68
2019-04-10T06:40:50.347Z,52.68
2019-04-10T06:41:56.096Z,52.44
2019-04-10T06:43:01.175Z,52.39
2019-04-10T06:44:06.120Z,52.30
2019-04-10T06:45:11.487Z,52.21
2019-04-10T06:46:16.804Z,52.21
2019-04-10T06:47:22.321Z,52.20
2019-04-10T06:48:27.875Z,52.22
2019-04-10T06:49:33.208Z,52.22
2019-04-10T06:50:39.129Z,52.23
2019-04-10T06:51:45.114Z,51.97
2019-04-10T06:52:51.330Z,52.10
2019-04-10T06:54:02.823Z,52.16
2019-04-10T06:55:04.950Z,52.16
2019-04-10T06:56:11.243Z,52.15
2019-04-10T06:57:16.849Z,52.09
2019-04-10T06:58:23.622Z,52.04
2019-04-10T06:59:28.898Z,52.01
2019-04-10T07:00:33.973Z,52.02
2019-04-10T07:01:44.355Z,52.03
2019-04-10T07:02:46.295Z,52.04
2019-04-10T07:03:59.135Z,51.99
2019-04-10T07:05:04.917Z,51.94
2019-04-10T07:06:11.521Z,51.87
2019-04-10T07:07:15.556Z,51.80
2019-04-10T07:08:23.670Z,51.80
2019-04-10T07:09:27.665Z,51.80
2019-04-10T07:10:45.394Z,51.71
2019-04-10T07:11:41.127Z,51.74
2019-04-10T07:12:46.400Z,51.68
2019-04-10T07:13:53.812Z,51.58
2019-04-10T07:14:59.657Z,51.59
2019-04-10T07:16:04.817Z,51.61
2019-04-10T07:17:10.679Z,51.60
2019-04-10T07:18:18.904Z,51.63
2019-04-10T07:19:24.201Z,51.56
2019-04-10T07:20:29.820Z,51.61
2019-04-10T07:21:36.063Z,51.61
2019-04-10T07:22:46.666Z,51.44
2019-04-10T07:23:49.370Z,51.52
2019-04-10T07:24:54.524Z,51.55
2019-04-10T07:25:59.668Z,51.55
2019-04-10T07:27:06.184Z,51.56
2019-04-10T07:28:12.526Z,51.39
2019-04-10T07:29:21.094Z,51.54
2019-04-10T07:30:26.666Z,51.54
2019-04-10T07:31:34.793Z,51.42
2019-04-10T07:32:43.320Z,51.40
2019-04-10T07:33:50.017Z,51.37
2019-04-10T07:34:57.301Z,51.22
2019-04-10T07:36:04.289Z,51.22
2019-04-10T07:37:09.444Z,51.31
2019-04-10T07:38:14.170Z,51.24
2019-04-10T07:39:19.355Z,51.07
2019-04-10T07:40:24.939Z,51.07
2019-04-10T07:41:30.088Z,51.04
2019-04-10T07:42:39.726Z,51.02
2019-04-10T07:43:42.587Z,50.96
2019-04-10T07:44:47.879Z,50.86
2019-04-10T07:45:56.620Z,50.86
2019-04-10T07:47:00.871Z,50.83
2019-04-10T07:48:06.725Z,50.70
2019-04-10T07:49:12.004Z,50.68
2019-04-10T07:50:17.063Z,50.67
2019-04-10T07:51:22.379Z,50.69
2019-04-10T07:52:27.697Z,50.68
2019-04-10T07:53:33.206Z,50.74
2019-04-10T07:54:38.724Z,50.76
2019-04-10T07:55:57.504Z,50.76
2019-04-10T07:56:51.918Z,50.68
2019-04-10T07:57:57.309Z,50.62
2019-04-10T07:59:02.698Z,50.56
2019-04-10T08:00:11.117Z,50.57
2019-04-10T08:01:16.235Z,50.57
2019-04-10T08:02:21.230Z,50.56
2019-04-10T08:03:26.181Z,50.54
2019-04-10T08:04:31.356Z,50.54
2019-04-10T08:05:37.426Z,50.46
2019-04-10T08:06:42.502Z,50.40
2019-04-10T08:07:47.505Z,50.38
2019-04-10T08:08:53.319Z,50.42
2019-04-10T08:09:59.183Z,50.34
2019-04-10T08:11:05.088Z,50.34
2019-04-10T08:12:11.344Z,50.23
2019-04-10T08:13:17.300Z,50.26
2019-04-10T08:14:22.388Z,50.27
2019-04-10T08:15:27.454Z,50.24
2019-04-10T08:16:32.901Z,50.20
2019-04-10T08:17:39.019Z,50.14
2019-04-10T08:18:44.370Z,49.98
2019-04-10T08:19:49.382Z,49.89
2019-04-10T08:20:55.171Z,49.97
2019-04-10T08:22:01.212Z,50.20
2019-04-10T08:23:07.944Z,50.20
2019-04-10T08:24:13.655Z,49.95
2019-04-10T08:25:18.702Z,49.90
2019-04-10T08:26:24.684Z,49.97
2019-04-10T08:27:48.530Z,49.97
2019-04-10T08:28:53.795Z,49.96
2019-04-10T08:29:59.120Z,49.76
2019-04-10T08:31:04.460Z,49.73
2019-04-10T08:32:09.930Z,49.77
2019-04-10T08:33:14.915Z,49.78
2019-04-10T08:34:22.353Z,49.70
2019-04-10T08:35:30.047Z,49.65
2019-04-10T08:36:35.315Z,49.57
2019-04-10T08:37:41.091Z,49.55
2019-04-10T08:38:46.676Z,49.49
2019-04-10T08:39:52.638Z,49.38
2019-04-10T08:40:58.644Z,49.39
2019-04-10T08:42:03.956Z,49.35
2019-04-10T08:43:08.968Z,49.34
2019-04-10T08:44:13.909Z,49.40
2019-04-10T08:45:19.223Z,49.39
2019-04-10T08:46:24.207Z,49.39
2019-04-10T08:47:29.246Z,49.40
2019-04-10T08:48:34.661Z,49.34
2019-04-10T08:49:41.167Z,49.24
2019-04-10T08:50:46.201Z,49.07
2019-04-10T08:51:52.044Z,48.92
2019-04-10T08:52:57.887Z,48.87
2019-04-10T08:54:03.038Z,48.86
2019-04-10T08:55:10.021Z,48.88
2019-04-10T08:56:16.216Z,48.76
2019-04-10T08:57:21.520Z,48.81
2019-04-10T08:58:27.142Z,48.80
2019-04-10T08:59:32.160Z,48.77
2019-04-10T09:00:37.568Z,48.72
2019-04-10T09:01:42.751Z,48.70
2019-04-10T09:02:48.609Z,48.64
2019-04-10T09:03:55.154Z,48.62
2019-04-10T09:05:01.413Z,48.64
2019-04-10T09:06:07.246Z,48.68
2019-04-10T09:07:12.313Z,48.60
2019-04-10T09:08:17.262Z,48.55
2019-04-10T09:09:23.618Z,48.43
2019-04-10T09:10:28.860Z,48.40
2019-04-10T09:11:34.007Z,48.37
2019-04-10T09:12:39.189Z,48.28
2019-04-10T09:13:44.473Z,48.06
2019-04-10T09:14:49.664Z,48.03
2019-04-10T09:15:54.698Z,47.95
2019-04-10T09:17:00.726Z,47.87
2019-04-10T09:18:06.122Z,47.76
2019-04-10T09:19:11.939Z,47.67
2019-04-10T09:20:18.317Z,47.65
2019-04-10T09:21:23.805Z,47.56
2019-04-10T09:22:30.144Z,47.53
2019-04-10T09:23:42.545Z,47.51
2019-04-10T09:24:42.500Z,47.51
2019-04-10T09:25:47.417Z,47.45
2019-04-10T09:26:52.841Z,47.30
2019-04-10T09:27:58.026Z,47.31
2019-04-10T09:29:03.081Z,47.24
2019-04-10T09:30:08.851Z,47.16
2019-04-10T09:31:13.800Z,47.19
2019-04-10T09:32:19.949Z,47.13
2019-04-10T09:33:28.266Z,47.10
2019-04-10T09:34:32.057Z,47.02
2019-04-10T09:35:38.347Z,46.98
2019-04-10T09:36:43.720Z,46.87
2019-04-10T09:37:48.918Z,46.72
2019-04-10T09:40:05.694Z,46.43
2019-04-10T09:41:11.934Z,46.36
2019-04-10T09:42:17.191Z,46.34
2019-04-10T09:43:23.169Z,46.31
2019-04-10T09:44:28.061Z,46.30
2019-04-10T09:45:33.002Z,46.28
2019-04-10T09:46:38.298Z,46.27
2019-04-10T09:47:43.869Z,46.23
2019-04-10T09:48:49.842Z,46.17
2019-04-10T09:49:55.566Z,46.10
2019-04-10T09:51:00.540Z,46.03
2019-04-10T09:52:05.523Z,45.93
2019-04-10T09:53:10.792Z,45.77
2019-04-10T09:54:16.113Z,45.59
2019-04-10T09:55:22.145Z,45.62
2019-04-10T09:56:27.647Z,45.65
2019-04-10T09:57:32.643Z,45.69
2019-04-10T09:58:37.655Z,45.56
2019-04-10T09:59:42.785Z,45.49
2019-04-10T10:00:48.247Z,45.43
2019-04-10T10:01:54.888Z,45.36
2019-04-10T10:03:00.077Z,45.34
2019-04-10T10:04:06.972Z,45.19
2019-04-10T10:05:12.970Z,45.09
2019-04-10T10:06:27.149Z,45.10
2019-04-10T10:07:26.253Z,45.10
2019-04-10T10:08:31.696Z,45.12
2019-04-10T10:09:37.090Z,45.12
2019-04-10T10:10:42.110Z,45.14
2019-04-10T10:11:47.173Z,45.00
2019-04-10T10:12:52.683Z,44.89
2019-04-10T10:13:58.491Z,44.83
2019-04-10T10:15:04.885Z,44.70
2019-04-10T10:16:10.513Z,44.52
2019-04-10T10:17:16.801Z,44.31
2019-04-10T10:18:21.999Z,44.16
2019-04-10T10:19:26.985Z,44.01
2019-04-10T10:20:32.187Z,43.85
2019-04-10T10:21:37.168Z,43.80
2019-04-10T10:22:42.164Z,43.78
2019-04-10T10:23:47.872Z,43.79
2019-04-10T10:24:53.122Z,43.79
2019-04-10T10:25:59.514Z,43.70
2019-04-10T10:27:05.356Z,43.69
2019-04-10T10:28:11.740Z,43.47
2019-04-10T10:29:17.654Z,43.27
2019-04-10T10:30:23.188Z,43.33
2019-04-10T10:31:28.514Z,43.38
2019-04-10T10:32:33.841Z,43.42
2019-04-10T10:33:40.061Z,43.43
2019-04-10T10:34:45.067Z,43.33
2019-04-10T10:35:50.154Z,43.28
2019-04-10T10:36:55.945Z,43.16
2019-04-10T10:38:01.628Z,43.11
2019-04-10T10:39:17.360Z,43.17
2019-04-10T10:40:23.382Z,43.26
2019-04-10T10:41:29.773Z,43.08
2019-04-10T10:42:37.914Z,42.89
2019-04-10T10:43:42.597Z,42.61
2019-04-10T10:44:48.064Z,42.37
2019-04-10T10:45:53.441Z,42.34
2019-04-10T10:46:59.930Z,42.40
2019-04-10T10:48:08.333Z,42.47
2019-04-10T10:49:12.560Z,42.49
2019-04-10T10:50:17.971Z,42.51
2019-04-10T10:51:23.505Z,42.53
2019-04-10T10:52:28.843Z,42.50
2019-04-10T10:53:34.691Z,42.36
2019-04-10T10:54:39.722Z,42.20
2019-04-10T10:55:45.525Z,42.02
2019-04-10T10:56:51.007Z,41.90
2019-04-10T10:57:57.509Z,41.95
2019-04-10T10:59:03.575Z,41.94
2019-04-10T11:00:12.819Z,41.90
2019-04-10T11:01:17.883Z,41.94
2019-04-10T11:02:23.137Z,42.03
2019-04-10T11:03:28.581Z,42.18
2019-04-10T11:04:33.680Z,42.11
2019-04-10T11:05:39.217Z,42.04
2019-04-10T11:06:54.871Z,42.08
2019-04-10T11:07:51.509Z,41.98
2019-04-10T11:08:56.868Z,41.79
2019-04-10T11:10:02.151Z,41.54
2019-04-10T11:11:08.658Z,41.22
2019-04-10T11:12:14.110Z,41.11
2019-04-10T11:13:19.092Z,41.06
2019-04-10T11:14:25.278Z,40.99
2019-04-10T11:15:30.478Z,40.87
2019-04-10T11:16:36.585Z,40.86
2019-04-10T11:17:42.222Z,41.07
2019-04-10T11:18:48.439Z,40.90
2019-04-10T11:19:53.537Z,40.70
2019-04-10T11:21:04.055Z,40.57
2019-04-10T11:22:07.400Z,40.47
2019-04-10T11:23:13.340Z,40.21
2019-04-10T11:24:19.589Z,39.87
2019-04-10T11:25:26.125Z,39.59
2019-04-10T11:26:31.582Z,39.48
2019-04-10T11:27:37.358Z,39.43
2019-04-10T11:28:43.228Z,39.43
2019-04-10T11:29:48.294Z,39.49
2019-04-10T11:30:53.680Z,39.58
2019-04-10T11:31:59.988Z,39.58
2019-04-10T11:33:06.188Z,39.50
2019-04-10T11:34:11.699Z,39.53
2019-04-10T11:35:17.514Z,39.53
2019-04-10T11:36:23.590Z,39.59
2019-04-10T11:37:37.350Z,39.63
2019-04-10T11:38:36.177Z,39.33
2019-04-10T11:39:44.993Z,39.34
2019-04-10T11:40:49.826Z,39.35
2019-04-10T11:41:55.289Z,39.40
2019-04-10T11:43:03.883Z,39.47
2019-04-10T11:44:09.464Z,39.54
2019-04-10T11:45:18.466Z,39.46
2019-04-10T11:46:25.313Z,39.51
2019-04-10T11:47:32.521Z,39.65
2019-04-10T11:48:38.961Z,39.69
2019-04-10T11:49:48.854Z,39.70
2019-04-10T11:50:58.943Z,39.64
2019-04-10T11:52:01.831Z,39.60
2019-04-10T11:53:10.275Z,39.52
2019-04-10T11:54:16.933Z,39.29
2019-04-10T11:55:25.798Z,39.14
2019-04-10T11:56:30.067Z,39.00
2019-04-10T11:57:35.260Z,38.93
2019-04-10T11:59:48.887Z,38.57
2019-04-10T12:00:56.371Z,38.47
2019-04-10T12:02:05.617Z,38.54
2019-04-10T12:03:10.309Z,38.69
2019-04-10T12:04:19.204Z,39.24
2019-04-10T12:05:25.242Z,39.56
2019-04-10T12:06:31.214Z,39.72
2019-04-10T12:09:08.348Z,39.99
2019-04-10T12:12:03.572Z,40.11
2019-04-10T12:13:08.823Z,40.01
2019-04-10T12:14:13.962Z,39.52
2019-04-10T12:15:19.242Z,39.25
2019-04-10T12:16:25.170Z,39.04
2019-04-10T12:17:30.331Z,38.95
2019-04-10T12:18:35.438Z,38.89
2019-04-10T12:19:40.552Z,38.97
2019-04-10T12:20:45.521Z,39.05
2019-04-10T12:21:50.810Z,39.15
2019-04-10T12:22:56.602Z,39.30
2019-04-10T12:24:02.185Z,39.33
2019-04-10T12:25:07.871Z,39.31
2019-04-10T12:26:13.801Z,39.20
2019-04-10T12:27:19.136Z,39.05
2019-04-10T12:28:24.159Z,38.76
2019-04-10T12:29:29.271Z,38.77
2019-04-10T12:30:35.289Z,38.92
2019-04-10T12:31:44.250Z,39.08
2019-04-10T12:32:49.377Z,39.09
2019-04-10T12:33:54.888Z,39.09
2019-04-10T12:35:00.318Z,39.14
2019-04-10T12:36:07.924Z,39.28
2019-04-10T12:37:13.679Z,39.46
2019-04-10T12:38:19.304Z,39.62
2019-04-10T12:39:24.645Z,39.85
2019-04-10T12:40:30.753Z,40.08
2019-04-10T12:41:36.006Z,40.21
2019-04-10T12:42:41.058Z,40.36
2019-04-10T12:43:47.159Z,40.58
2019-04-10T12:44:52.714Z,40.68
2019-04-10T12:45:57.923Z,40.78
2019-04-10T12:47:03.737Z,40.83
2019-04-10T12:48:08.889Z,40.88
2019-04-10T12:49:14.969Z,40.80
2019-04-10T12:50:20.429Z,40.70
2019-04-10T12:51:25.761Z,40.50
2019-04-10T12:52:30.825Z,40.47
2019-04-10T12:53:36.329Z,40.46
2019-04-10T12:54:42.745Z,40.49
2019-04-10T12:55:47.845Z,40.55
2019-04-10T12:56:52.816Z,40.66
2019-04-10T12:58:06.641Z,40.72
2019-04-10T12:59:05.031Z,40.76
2019-04-10T13:00:18.171Z,40.81
2019-04-10T13:01:23.406Z,40.89
2019-04-10T13:02:28.365Z,40.84
2019-04-10T13:03:33.593Z,40.77
2019-04-10T13:04:38.683Z,40.68
2019-04-10T13:05:43.732Z,40.56
2019-04-10T13:06:51.479Z,40.38
2019-04-10T13:07:56.150Z,40.37
2019-04-10T13:09:07.836Z,40.26
2019-04-10T13:10:08.824Z,40.16
2019-04-10T13:11:14.243Z,40.12
2019-04-10T13:12:20.803Z,40.04
2019-04-10T13:13:27.198Z,39.93
2019-04-10T13:14:34.795Z,39.81
2019-04-10T13:15:40.257Z,39.61
2019-04-10T13:16:45.326Z,39.59
2019-04-10T13:17:51.049Z,39.52
2019-04-10T13:18:56.517Z,39.52
2019-04-10T13:20:01.868Z,39.44
2019-04-10T13:21:06.983Z,39.31
2019-04-10T13:22:12.376Z,39.25
2019-04-10T13:23:17.830Z,39.29
2019-04-10T13:24:23.808Z,39.22
2019-04-10T13:25:28.771Z,39.08
2019-04-10T13:26:34.223Z,39.07
2019-04-10T13:27:39.577Z,39.14
2019-04-10T13:28:44.558Z,39.23
2019-04-10T13:29:49.632Z,39.36
2019-04-10T13:30:56.658Z,39.52
2019-04-10T13:32:01.863Z,39.55
2019-04-10T13:33:08.693Z,39.56
2019-04-10T13:34:13.917Z,39.40
2019-04-10T13:35:18.923Z,39.24
2019-04-10T13:36:23.944Z,39.20
2019-04-10T13:37:28.943Z,39.15
2019-04-10T13:38:35.518Z,39.07
2019-04-10T13:39:41.491Z,39.08
2019-04-10T13:40:46.539Z,39.08
2019-04-10T13:41:52.546Z,38.98
2019-04-10T13:42:57.992Z,39.05
2019-04-10T13:44:02.977Z,39.11
2019-04-10T13:45:09.023Z,39.21
2019-04-10T13:46:14.254Z,39.30
2019-04-10T13:47:19.670Z,39.40
2019-04-10T13:48:25.090Z,39.48
2019-04-10T13:49:30.300Z,39.46
2019-04-10T13:50:35.477Z,39.45
2019-04-10T13:51:40.452Z,39.49
2019-04-10T13:52:51.846Z,39.48
2019-04-10T13:53:56.594Z,39.44
2019-04-10T13:55:03.160Z,39.38
2019-04-10T13:56:08.651Z,39.40
2019-04-10T13:57:14.691Z,39.33
2019-04-10T13:58:19.846Z,39.21
2019-04-10T13:59:24.884Z,39.24
2019-04-10T14:00:41.163Z,39.31
2019-04-10T14:01:46.383Z,39.25
2019-04-10T14:02:52.081Z,39.23
2019-04-10T14:03:57.112Z,39.13
2019-04-10T14:05:03.129Z,39.14
2019-04-10T14:06:09.509Z,39.08
2019-04-10T14:07:15.813Z,39.02
2019-04-10T14:08:32.423Z,38.89
2019-04-10T14:09:36.832Z,38.87
2019-04-10T14:10:35.301Z,38.72
2019-04-10T14:11:41.428Z,38.49
2019-04-10T14:12:47.185Z,38.50
2019-04-10T14:13:52.212Z,38.48
2019-04-10T14:14:57.366Z,38.47